createdAt,value
2023-03-06T00:03:28.125Z,4.31
2023-03-06T00:08:30.053Z,4.23
2023-03-06T00:13:34.929Z,4.25
2023-03-06T00:18:36.617Z,4.25
2023-03-06T00:23:38.477Z,4.25
2023-03-06T00:28:41.490Z,4.19
2023-03-06T00:33:44.312Z,4.25
2023-03-06T00:38:46.068Z,4.25
2023-03-06T00:43:49.153Z,4.21
2023-03-06T00:48:50.845Z,4.19
2023-03-06T00:53:55.986Z,4.17
2023-03-06T00:59:00.443Z,4.15
2023-03-06T01:04:02.116Z,4.15
2023-03-06T01:09:04.105Z,4.13
2023-03-06T01:14:07.183Z,4.12
2023-03-06T01:19:08.979Z,4.16
2023-03-06T01:24:10.686Z,4.15
2023-03-06T01:29:13.722Z,4.16
2023-03-06T01:34:15.445Z,4.19
2023-03-06T01:39:17.139Z,4.21
2023-03-06T01:44:20.253Z,4.17
2023-03-06T01:49:24.149Z,4.25
2023-03-06T01:54:27.428Z,4.29
2023-03-06T01:59:30.463Z,4.32
2023-03-06T02:04:32.205Z,4.35
2023-03-06T02:09:34.674Z,4.42
2023-03-06T02:14:37.903Z,4.40
2023-03-06T02:19:46.629Z,4.41
2023-03-06T02:24:49.924Z,4.36
2023-03-06T02:29:54.327Z,4.34
2023-03-06T02:34:57.080Z,4.27
2023-03-06T02:40:05.968Z,4.33
2023-03-06T02:45:10.018Z,4.27
2023-03-06T02:50:11.885Z,4.19
2023-03-06T02:55:14.100Z,4.17
2023-03-06T03:00:19.019Z,4.16
2023-03-06T03:05:20.894Z,4.15
2023-03-06T03:10:29.083Z,4.17
2023-03-06T03:15:32.680Z,4.16
2023-03-06T03:20:34.983Z,4.16
2023-03-06T03:25:36.782Z,4.18
2023-03-06T03:30:40.549Z,4.21
2023-03-06T03:35:43.603Z,4.21
2023-03-06T03:40:45.618Z,4.22
2023-03-06T03:45:48.751Z,4.23
2023-03-06T03:50:50.584Z,4.15
2023-03-06T03:55:52.837Z,4.02
2023-03-06T04:00:57.916Z,4.04
2023-03-06T04:05:59.881Z,4.05
2023-03-06T04:11:02.970Z,4.03
2023-03-06T04:16:07.954Z,3.85
2023-03-06T04:21:11.896Z,3.85
2023-03-06T04:26:14.274Z,3.91
2023-03-06T04:31:17.580Z,3.83
2023-03-06T04:36:25.779Z,3.84
2023-03-06T04:41:30.644Z,3.86
2023-03-06T04:46:34.069Z,3.82
2023-03-06T04:51:38.812Z,3.74
2023-03-06T04:56:40.508Z,3.72
2023-03-06T05:01:43.595Z,3.78
2023-03-06T05:06:45.289Z,3.63
2023-03-06T05:11:47.142Z,3.59
2023-03-06T05:16:50.242Z,3.43
2023-03-06T05:21:52.486Z,3.11
2023-03-06T05:26:54.179Z,2.97
2023-03-06T05:31:57.354Z,3.09
2023-03-06T05:37:01.727Z,2.94
2023-03-06T05:42:03.714Z,2.98
2023-03-06T05:47:06.883Z,3.17
2023-03-06T05:52:09.091Z,3.14
2023-03-06T05:57:10.757Z,3.19
2023-03-06T06:02:13.823Z,3.14
2023-03-06T06:07:15.762Z,3.15
2023-03-06T06:12:17.434Z,3.16
2023-03-06T06:17:20.446Z,3.16
2023-03-06T06:22:22.151Z,3.23
2023-03-06T06:27:23.834Z,3.27
2023-03-06T06:32:26.906Z,3.23
2023-03-06T06:37:28.599Z,3.23
2023-03-06T06:42:36.952Z,3.25
2023-03-06T06:47:42.425Z,3.26
2023-03-06T06:52:44.138Z,3.16
2023-03-06T06:57:45.772Z,3.17
2023-03-06T07:02:49.304Z,3.12
2023-03-06T07:07:51.447Z,3.04
2023-03-06T07:12:53.310Z,3.01
2023-03-06T07:17:56.274Z,3.00
2023-03-06T07:22:57.916Z,2.99
2023-03-06T07:27:59.656Z,3.02
2023-03-06T07:33:02.814Z,3.06
2023-03-06T07:38:04.494Z,3.11
2023-03-06T07:43:18.793Z,3.16
2023-03-06T07:48:29.274Z,3.14
2023-03-06T07:53:31.007Z,3.13
2023-03-06T07:58:32.711Z,3.15
2023-03-06T08:03:35.927Z,3.19
2023-03-06T08:08:39.275Z,3.26
2023-03-06T08:13:40.995Z,3.33
2023-03-06T08:18:46.243Z,3.32
2023-03-06T08:23:48.209Z,3.31
2023-03-06T08:28:50.687Z,3.21
2023-03-06T08:33:53.952Z,3.25
2023-03-06T08:38:55.713Z,3.27
2023-03-06T08:43:57.362Z,3.32
2023-03-06T08:49:00.465Z,3.38
2023-03-06T08:54:02.134Z,3.28
2023-03-06T08:59:05.014Z,3.35
2023-03-06T09:04:09.187Z,3.40
2023-03-06T09:09:10.875Z,3.44
2023-03-06T09:14:12.556Z,3.47
2023-03-06T09:19:15.556Z,3.32
2023-03-06T09:24:17.240Z,3.31
2023-03-06T09:29:18.908Z,3.26
2023-03-06T09:34:21.900Z,3.40
2023-03-06T09:39:24.106Z,3.47
2023-03-06T09:44:27.503Z,3.52
2023-03-06T09:49:45.552Z,3.60
2023-03-06T09:54:48.083Z,3.68
2023-03-06T09:59:51.677Z,3.80
2023-03-06T10:04:56.076Z,3.87
2023-03-06T10:09:59.432Z,3.84
2023-03-06T10:15:10.598Z,3.88
2023-03-06T10:20:18.768Z,4.01
2023-03-06T10:25:23.084Z,4.14
2023-03-06T10:30:32.537Z,4.19
2023-03-06T10:35:43.330Z,4.25
2023-03-06T10:40:49.729Z,4.53
2023-03-06T10:45:52.372Z,4.74
2023-03-06T10:51:17.768Z,4.87
2023-03-06T10:56:27.199Z,5.27
2023-03-06T11:01:29.010Z,5.75
2023-03-06T11:06:34.469Z,5.88
2023-03-06T11:11:38.028Z,6.06
2023-03-06T11:16:39.893Z,5.89
2023-03-06T11:21:43.008Z,5.63
2023-03-06T11:26:45.748Z,5.41
2023-03-06T11:31:49.651Z,5.58
2023-03-06T11:36:54.810Z,5.55
2023-03-06T11:42:00.048Z,5.64
2023-03-06T11:47:06.228Z,5.72
2023-03-06T11:52:15.010Z,5.51
2023-03-06T11:57:18.046Z,5.56
2023-03-06T12:02:25.466Z,5.79
2023-03-06T12:07:30.050Z,6.04
2023-03-06T12:13:05.321Z,7.59
2023-03-06T12:18:14.040Z,8.09
2023-03-06T12:23:26.993Z,8.17
2023-03-06T12:28:33.994Z,8.20
2023-03-06T12:33:38.011Z,8.20
2023-03-06T12:38:52.943Z,8.57
2023-03-06T12:44:18.900Z,8.77
2023-03-06T12:49:32.076Z,9.26
2023-03-06T12:54:37.312Z,9.34
2023-03-06T12:59:43.926Z,9.45
2023-03-06T13:04:55.051Z,9.75
2023-03-06T13:10:07.062Z,10.04
2023-03-06T13:15:36.723Z,10.07
2023-03-06T13:20:40.972Z,9.64
2023-03-06T13:25:48.155Z,8.76
2023-03-06T13:30:51.973Z,8.31
2023-03-06T13:35:55.252Z,8.24
2023-03-06T13:41:26.980Z,7.91
2023-03-06T13:46:29.835Z,7.64
2023-03-06T13:51:33.523Z,7.42
2023-03-06T13:56:48.956Z,7.16
2023-03-06T14:01:56.092Z,7.03
2023-03-06T14:07:11.020Z,7.55
2023-03-06T14:12:18.124Z,7.92
2023-03-06T14:17:24.428Z,8.11
2023-03-06T14:22:26.089Z,8.20
2023-03-06T14:27:44.081Z,8.29
2023-03-06T14:32:45.822Z,8.30
2023-03-06T14:37:47.834Z,8.29
2023-03-06T14:43:05.797Z,8.15
2023-03-06T14:48:13.325Z,7.88
2023-03-06T14:53:15.942Z,7.52
2023-03-06T14:58:20.152Z,7.18
2023-03-06T15:04:12.921Z,6.78
2023-03-06T15:09:16.002Z,6.62
2023-03-06T15:14:17.887Z,6.45
2023-03-06T15:19:21.359Z,6.27
2023-03-06T15:24:32.160Z,6.21
2023-03-06T15:29:33.898Z,6.20
2023-03-06T15:34:36.925Z,6.22
2023-03-06T15:39:39.019Z,6.15
2023-03-06T15:44:40.775Z,5.97
2023-03-06T15:49:44.033Z,5.95
2023-03-06T15:54:45.881Z,5.99
2023-03-06T15:59:47.792Z,6.01
2023-03-06T16:04:50.931Z,5.89
2023-03-06T16:09:52.770Z,5.79
2023-03-06T16:14:54.530Z,5.64
2023-03-06T16:19:57.569Z,5.59
2023-03-06T16:24:59.242Z,5.60
2023-03-06T16:30:00.891Z,5.57
2023-03-06T16:35:04.144Z,5.52
2023-03-06T16:40:10.597Z,5.43
2023-03-06T16:45:12.507Z,5.39
2023-03-06T16:50:21.435Z,5.29
2023-03-06T16:55:23.259Z,5.12
2023-03-06T17:00:25.078Z,5.01
2023-03-06T17:05:28.699Z,4.96
2023-03-06T17:10:30.507Z,4.94
2023-03-06T17:15:32.217Z,4.85
2023-03-06T17:20:35.626Z,4.72
2023-03-06T17:25:38.357Z,4.64
2023-03-06T17:30:40.026Z,4.54
2023-03-06T17:35:43.111Z,4.46
2023-03-06T17:40:44.787Z,4.32
2023-03-06T17:45:47.417Z,4.19
2023-03-06T17:50:54.022Z,4.12
2023-03-06T17:55:57.863Z,4.04
2023-03-06T18:00:59.588Z,3.88
2023-03-06T18:06:03.398Z,3.76
2023-03-06T18:11:06.225Z,3.70
2023-03-06T18:16:08.223Z,3.67
2023-03-06T18:21:12.057Z,3.59
2023-03-06T18:26:14.847Z,3.49
2023-03-06T18:31:16.653Z,3.46
2023-03-06T18:36:19.867Z,3.55
2023-03-06T18:41:21.743Z,3.47
2023-03-06T18:46:24.004Z,3.40
2023-03-06T18:51:27.369Z,3.32
2023-03-06T18:56:29.156Z,3.21
2023-03-06T19:01:31.381Z,3.10
2023-03-06T19:06:34.554Z,3.06
2023-03-06T19:11:36.532Z,2.96
2023-03-06T19:16:38.347Z,2.93
2023-03-06T19:21:41.526Z,2.94
2023-03-06T19:26:43.258Z,2.88
2023-03-06T19:31:44.971Z,2.86
2023-03-06T19:36:49.468Z,2.80
2023-03-06T19:41:51.655Z,2.72
2023-03-06T19:46:53.383Z,2.74
2023-03-06T19:51:56.653Z,2.70
2023-03-06T19:56:58.399Z,2.63
2023-03-06T20:02:00.112Z,2.53
2023-03-06T20:07:04.825Z,2.47
2023-03-06T20:12:08.273Z,2.46
2023-03-06T20:17:10.118Z,2.38
2023-03-06T20:22:13.335Z,2.34
2023-03-06T20:27:15.075Z,2.30
2023-03-06T20:32:16.827Z,2.38
2023-03-06T20:37:20.054Z,2.35
2023-03-06T20:42:21.735Z,2.21
2023-03-06T20:47:23.452Z,2.19
2023-03-06T20:52:26.586Z,2.28
2023-03-06T20:57:29.191Z,2.27
2023-03-06T21:02:30.990Z,2.29
2023-03-06T21:07:34.073Z,2.22
2023-03-06T21:12:35.744Z,2.21
2023-03-06T21:17:37.497Z,2.14
2023-03-06T21:22:40.811Z,2.17
2023-03-06T21:27:42.612Z,2.22
2023-03-06T21:32:44.320Z,2.16
2023-03-06T21:37:47.419Z,2.17
2023-03-06T21:42:49.217Z,2.23
2023-03-06T21:47:51.056Z,2.27
2023-03-06T21:52:55.581Z,2.30
2023-03-06T21:57:57.581Z,2.37
2023-03-06T22:02:59.327Z,2.39
2023-03-06T22:08:02.421Z,2.39
2023-03-06T22:13:04.285Z,2.44
2023-03-06T22:18:06.650Z,2.41
2023-03-06T22:23:09.794Z,2.47
2023-03-06T22:28:13.055Z,2.49
2023-03-06T22:33:14.797Z,2.52
2023-03-06T22:38:19.084Z,2.55
2023-03-06T22:43:21.334Z,2.57
2023-03-06T22:48:23.202Z,2.60
2023-03-06T22:53:26.264Z,2.62
2023-03-06T22:58:34.035Z,2.73
2023-03-06T23:03:36.250Z,2.77
2023-03-06T23:08:39.322Z,2.78
2023-03-06T23:13:41.023Z,2.87
2023-03-06T23:19:01.280Z,2.95
2023-03-06T23:24:22.673Z,3.05
2023-03-06T23:29:24.502Z,3.11
2023-03-06T23:34:26.243Z,3.09
2023-03-06T23:39:29.437Z,3.11
2023-03-06T23:44:31.274Z,3.17
2023-03-06T23:49:33.197Z,3.13
2023-03-06T23:54:36.283Z,3.21
2023-03-06T23:59:38.145Z,3.25
